sensor_id;sensor_type;location;lat;lon;timestamp;P1;durP1;ratioP1;P2;durP2;ratioP2
5303;SDS011;2674;49.722;10.892;2023-05-15T00:00:05;6.27;;;5.67;;
5303;SDS011;2674;49.722;10.892;2023-05-15T00:02:34;5.33;;;4.83;;
5303;SDS011;2674;49.722;10.892;2023-05-15T00:05:02;7.00;;;5.60;;
5303;SDS011;2674;49.722;10.892;2023-05-15T00:07:31;5.37;;;4.73;;
5303;SDS011;2674;49.722;10.892;2023-05-15T00:09:58;7.20;;;5.40;;
5303;SDS011;2674;49.722;10.892;2023-05-15T00:12:23;8.20;;;5.20;;
5303;SDS011;2674;49.722;10.892;2023-05-15T00:14:50;7.23;;;5.80;;
5303;SDS011;2674;49.722;10.892;2023-05-15T00:17:15;6.43;;;5.40;;
5303;SDS011;2674;49.722;10.892;2023-05-15T00:19:41;7.90;;;5.87;;
5303;SDS011;2674;49.722;10.892;2023-05-15T00:22:07;6.97;;;5.70;;
5303;SDS011;2674;49.722;10.892;2023-05-15T00:24:33;6.23;;;5.70;;
5303;SDS011;2674;49.722;10.892;2023-05-15T00:27:03;6.17;;;5.57;;
5303;SDS011;2674;49.722;10.892;2023-05-15T00:29:29;6.60;;;5.97;;
5303;SDS011;2674;49.722;10.892;2023-05-15T00:31:55;6.30;;;5.57;;
5303;SDS011;2674;49.722;10.892;2023-05-15T00:34:21;7.27;;;5.53;;
5303;SDS011;2674;49.722;10.892;2023-05-15T00:36:47;7.00;;;6.20;;
5303;SDS011;2674;49.722;10.892;2023-05-15T00:39:13;7.63;;;5.80;;
5303;SDS011;2674;49.722;10.892;2023-05-15T00:41:39;6.00;;;5.40;;
5303;SDS011;2674;49.722;10.892;2023-05-15T00:44:06;5.60;;;5.10;;
5303;SDS011;2674;49.722;10.892;2023-05-15T00:46:33;6.17;;;5.67;;
5303;SDS011;2674;49.722;10.892;2023-05-15T00:49:01;8.27;;;6.10;;
5303;SDS011;2674;49.722;10.892;2023-05-15T00:51:29;5.53;;;5.03;;
5303;SDS011;2674;49.722;10.892;2023-05-15T00:53:55;5.60;;;5.10;;
5303;SDS011;2674;49.722;10.892;2023-05-15T00:56:22;6.20;;;5.60;;
5303;SDS011;2674;49.722;10.892;2023-05-15T00:58:49;10.20;;;6.50;;
5303;SDS011;2674;49.722;10.892;2023-05-15T01:01:16;6.23;;;5.70;;
5303;SDS011;2674;49.722;10.892;2023-05-15T01:03:42;6.60;;;5.90;;
5303;SDS011;2674;49.722;10.892;2023-05-15T01:06:09;12.27;;;6.60;;
5303;SDS011;2674;49.722;10.892;2023-05-15T01:08:42;6.27;;;5.67;;
5303;SDS011;2674;49.722;10.892;2023-05-15T01:11:15;7.07;;;5.73;;
5303;SDS011;2674;49.722;10.892;2023-05-15T01:13:41;7.63;;;6.63;;
5303;SDS011;2674;49.722;10.892;2023-05-15T01:16:08;10.00;;;6.57;;
5303;SDS011;2674;49.722;10.892;2023-05-15T01:18:35;9.23;;;6.83;;
5303;SDS011;2674;49.722;10.892;2023-05-15T01:29:36;8.37;;;7.20;;
5303;SDS011;2674;49.722;10.892;2023-05-15T01:32:10;7.70;;;5.67;;
5303;SDS011;2674;49.722;10.892;2023-05-15T01:34:47;7.07;;;6.27;;
5303;SDS011;2674;49.722;10.892;2023-05-15T01:37:39;8.20;;;5.57;;
5303;SDS011;2674;49.722;10.892;2023-05-15T01:40:09;6.63;;;5.63;;
5303;SDS011;2674;49.722;10.892;2023-05-15T01:42:40;6.87;;;5.63;;
5303;SDS011;2674;49.722;10.892;2023-05-15T01:45:09;7.13;;;5.80;;
5303;SDS011;2674;49.722;10.892;2023-05-15T01:47:40;7.83;;;5.90;;
5303;SDS011;2674;49.722;10.892;2023-05-15T01:50:10;6.40;;;5.80;;
5303;SDS011;2674;49.722;10.892;2023-05-15T01:52:40;8.50;;;6.60;;
5303;SDS011;2674;49.722;10.892;2023-05-15T01:55:10;8.23;;;5.70;;
5303;SDS011;2674;49.722;10.892;2023-05-15T01:57:38;9.43;;;6.07;;
5303;SDS011;2674;49.722;10.892;2023-05-15T02:00:06;8.17;;;6.47;;
5303;SDS011;2674;49.722;10.892;2023-05-15T02:02:34;8.27;;;6.60;;
5303;SDS011;2674;49.722;10.892;2023-05-15T02:05:01;7.73;;;6.60;;
5303;SDS011;2674;49.722;10.892;2023-05-15T02:07:27;8.43;;;5.67;;
5303;SDS011;2674;49.722;10.892;2023-05-15T02:09:53;16.37;;;8.03;;
5303;SDS011;2674;49.722;10.892;2023-05-15T02:12:20;6.47;;;5.93;;
5303;SDS011;2674;49.722;10.892;2023-05-15T02:14:48;7.90;;;6.00;;
5303;SDS011;2674;49.722;10.892;2023-05-15T02:17:14;8.20;;;6.47;;
5303;SDS011;2674;49.722;10.892;2023-05-15T02:19:40;8.90;;;6.07;;
5303;SDS011;2674;49.722;10.892;2023-05-15T02:22:06;8.10;;;6.30;;
5303;SDS011;2674;49.722;10.892;2023-05-15T02:24:32;6.47;;;5.97;;
5303;SDS011;2674;49.722;10.892;2023-05-15T02:29:27;11.20;;;6.30;;
5303;SDS011;2674;49.722;10.892;2023-05-15T02:35:16;11.03;;;6.13;;
5303;SDS011;2674;49.722;10.892;2023-05-15T02:37:45;6.40;;;5.80;;
5303;SDS011;2674;49.722;10.892;2023-05-15T02:40:15;7.63;;;6.83;;
5303;SDS011;2674;49.722;10.892;2023-05-15T02:42:41;12.13;;;6.03;;
5303;SDS011;2674;49.722;10.892;2023-05-15T02:45:09;7.20;;;6.60;;
5303;SDS011;2674;49.722;10.892;2023-05-15T02:47:36;6.97;;;5.93;;
5303;SDS011;2674;49.722;10.892;2023-05-15T02:50:04;9.47;;;8.17;;
5303;SDS011;2674;49.722;10.892;2023-05-15T02:52:31;8.03;;;6.30;;
5303;SDS011;2674;49.722;10.892;2023-05-15T02:54:58;7.47;;;6.60;;
5303;SDS011;2674;49.722;10.892;2023-05-15T02:57:24;8.80;;;6.10;;
5303;SDS011;2674;49.722;10.892;2023-05-15T02:59:51;7.60;;;5.60;;
5303;SDS011;2674;49.722;10.892;2023-05-15T03:02:20;6.70;;;5.70;;
5303;SDS011;2674;49.722;10.892;2023-05-15T03:04:46;7.70;;;6.40;;
5303;SDS011;2674;49.722;10.892;2023-05-15T03:07:12;11.53;;;7.00;;
5303;SDS011;2674;49.722;10.892;2023-05-15T03:09:38;10.20;;;7.17;;
5303;SDS011;2674;49.722;10.892;2023-05-15T03:12:05;7.27;;;6.57;;
5303;SDS011;2674;49.722;10.892;2023-05-15T03:14:32;7.80;;;7.00;;
5303;SDS011;2674;49.722;10.892;2023-05-15T03:16:57;8.00;;;7.20;;
5303;SDS011;2674;49.722;10.892;2023-05-15T03:19:24;7.73;;;7.00;;
5303;SDS011;2674;49.722;10.892;2023-05-15T03:21:50;7.90;;;7.10;;
5303;SDS011;2674;49.722;10.892;2023-05-15T03:24:16;8.20;;;7.43;;
5303;SDS011;2674;49.722;10.892;2023-05-15T03:26:41;8.13;;;7.33;;
5303;SDS011;2674;49.722;10.892;2023-05-15T03:29:09;7.40;;;6.70;;
5303;SDS011;2674;49.722;10.892;2023-05-15T03:31:35;7.70;;;6.73;;
5303;SDS011;2674;49.722;10.892;2023-05-15T03:34:01;7.73;;;6.93;;
5303;SDS011;2674;49.722;10.892;2023-05-15T03:36:26;7.47;;;6.67;;
5303;SDS011;2674;49.722;10.892;2023-05-15T03:38:52;13.53;;;8.03;;
5303;SDS011;2674;49.722;10.892;2023-05-15T03:41:18;7.67;;;6.87;;
5303;SDS011;2674;49.722;10.892;2023-05-15T03:43:45;7.97;;;7.10;;
5303;SDS011;2674;49.722;10.892;2023-05-15T03:46:11;8.20;;;6.80;;
5303;SDS011;2674;49.722;10.892;2023-05-15T03:48:37;9.87;;;7.73;;
5303;SDS011;2674;49.722;10.892;2023-05-15T03:51:02;8.30;;;7.30;;
5303;SDS011;2674;49.722;10.892;2023-05-15T03:53:28;11.87;;;8.00;;
5303;SDS011;2674;49.722;10.892;2023-05-15T03:55:55;7.83;;;7.03;;
5303;SDS011;2674;49.722;10.892;2023-05-15T03:58:21;7.40;;;6.60;;
5303;SDS011;2674;49.722;10.892;2023-05-15T04:00:46;9.70;;;7.70;;
5303;SDS011;2674;49.722;10.892;2023-05-15T04:03:13;13.23;;;8.10;;
5303;SDS011;2674;49.722;10.892;2023-05-15T04:05:39;9.33;;;8.43;;
5303;SDS011;2674;49.722;10.892;2023-05-15T04:08:05;10.97;;;8.17;;
5303;SDS011;2674;49.722;10.892;2023-05-15T04:10:33;9.90;;;6.93;;
5303;SDS011;2674;49.722;10.892;2023-05-15T04:12:59;13.47;;;8.37;;
5303;SDS011;2674;49.722;10.892;2023-05-15T04:15:25;10.10;;;7.97;;
5303;SDS011;2674;49.722;10.892;2023-05-15T04:17:52;9.27;;;8.03;;
5303;SDS011;2674;49.722;10.892;2023-05-15T04:20:20;13.37;;;9.10;;
5303;SDS011;2674;49.722;10.892;2023-05-15T04:22:47;10.63;;;8.40;;
5303;SDS011;2674;49.722;10.892;2023-05-15T04:25:13;10.97;;;8.40;;
5303;SDS011;2674;49.722;10.892;2023-05-15T04:27:40;8.50;;;7.70;;
5303;SDS011;2674;49.722;10.892;2023-05-15T04:30:07;11.53;;;8.43;;
5303;SDS011;2674;49.722;10.892;2023-05-15T04:32:35;9.73;;;7.90;;
5303;SDS011;2674;49.722;10.892;2023-05-15T04:35:02;16.30;;;9.43;;
5303;SDS011;2674;49.722;10.892;2023-05-15T04:37:37;9.50;;;8.40;;
5303;SDS011;2674;49.722;10.892;2023-05-15T04:40:04;11.47;;;8.60;;
5303;SDS011;2674;49.722;10.892;2023-05-15T04:42:32;10.70;;;8.33;;
5303;SDS011;2674;49.722;10.892;2023-05-15T04:44:58;8.30;;;7.50;;
5303;SDS011;2674;49.722;10.892;2023-05-15T04:47:24;8.07;;;7.27;;
5303;SDS011;2674;49.722;10.892;2023-05-15T04:49:50;9.57;;;8.57;;
5303;SDS011;2674;49.722;10.892;2023-05-15T04:52:16;10.60;;;8.70;;
5303;SDS011;2674;49.722;10.892;2023-05-15T04:54:42;15.70;;;7.93;;
5303;SDS011;2674;49.722;10.892;2023-05-15T04:57:08;11.83;;;8.60;;
5303;SDS011;2674;49.722;10.892;2023-05-15T04:59:34;10.20;;;8.00;;
5303;SDS011;2674;49.722;10.892;2023-05-15T05:02:00;11.23;;;6.83;;
5303;SDS011;2674;49.722;10.892;2023-05-15T05:04:26;9.97;;;7.60;;
5303;SDS011;2674;49.722;10.892;2023-05-15T05:06:52;12.43;;;7.97;;
5303;SDS011;2674;49.722;10.892;2023-05-15T05:09:18;9.53;;;8.07;;
5303;SDS011;2674;49.722;10.892;2023-05-15T05:11:45;9.17;;;8.00;;
5303;SDS011;2674;49.722;10.892;2023-05-15T05:14:14;8.67;;;7.80;;
5303;SDS011;2674;49.722;10.892;2023-05-15T05:16:41;10.80;;;8.30;;
5303;SDS011;2674;49.722;10.892;2023-05-15T05:19:09;7.83;;;7.03;;
5303;SDS011;2674;49.722;10.892;2023-05-15T05:21:35;11.10;;;7.23;;
5303;SDS011;2674;49.722;10.892;2023-05-15T05:24:01;7.07;;;6.37;;
5303;SDS011;2674;49.722;10.892;2023-05-15T05:26:27;9.87;;;8.30;;
5303;SDS011;2674;49.722;10.892;2023-05-15T05:28:53;10.10;;;7.20;;
5303;SDS011;2674;49.722;10.892;2023-05-15T05:31:22;6.97;;;6.27;;
5303;SDS011;2674;49.722;10.892;2023-05-15T05:33:48;7.73;;;6.83;;
5303;SDS011;2674;49.722;10.892;2023-05-15T05:36:16;6.40;;;5.80;;
5303;SDS011;2674;49.722;10.892;2023-05-15T05:38:42;7.10;;;6.10;;
5303;SDS011;2674;49.722;10.892;2023-05-15T05:41:08;7.10;;;6.00;;
5303;SDS011;2674;49.722;10.892;2023-05-15T05:43:35;7.27;;;6.30;;
5303;SDS011;2674;49.722;10.892;2023-05-15T05:46:01;8.47;;;7.20;;
5303;SDS011;2674;49.722;10.892;2023-05-15T05:48:27;7.57;;;6.77;;
5303;SDS011;2674;49.722;10.892;2023-05-15T05:50:54;12.07;;;6.67;;
5303;SDS011;2674;49.722;10.892;2023-05-15T05:53:20;9.13;;;5.67;;
5303;SDS011;2674;49.722;10.892;2023-05-15T05:55:46;6.57;;;5.97;;
5303;SDS011;2674;49.722;10.892;2023-05-15T05:58:12;6.10;;;5.50;;
5303;SDS011;2674;49.722;10.892;2023-05-15T06:00:39;9.43;;;6.20;;
5303;SDS011;2674;49.722;10.892;2023-05-15T06:03:05;7.20;;;5.50;;
5303;SDS011;2674;49.722;10.892;2023-05-15T06:05:30;8.20;;;5.70;;
5303;SDS011;2674;49.722;10.892;2023-05-15T06:07:56;6.80;;;5.90;;
5303;SDS011;2674;49.722;10.892;2023-05-15T06:10:23;8.13;;;6.00;;
5303;SDS011;2674;49.722;10.892;2023-05-15T06:12:49;8.73;;;6.30;;
5303;SDS011;2674;49.722;10.892;2023-05-15T06:15:16;6.33;;;5.77;;
5303;SDS011;2674;49.722;10.892;2023-05-15T06:17:42;7.00;;;6.40;;
5303;SDS011;2674;49.722;10.892;2023-05-15T06:20:08;6.40;;;5.70;;
5303;SDS011;2674;49.722;10.892;2023-05-15T06:22:35;8.53;;;6.20;;
5303;SDS011;2674;49.722;10.892;2023-05-15T06:25:01;8.23;;;6.83;;
5303;SDS011;2674;49.722;10.892;2023-05-15T06:27:29;6.83;;;6.13;;
5303;SDS011;2674;49.722;10.892;2023-05-15T06:29:55;6.60;;;5.90;;
5303;SDS011;2674;49.722;10.892;2023-05-15T06:32:21;7.50;;;5.97;;
5303;SDS011;2674;49.722;10.892;2023-05-15T06:34:47;7.30;;;6.50;;
5303;SDS011;2674;49.722;10.892;2023-05-15T06:37:13;7.90;;;6.53;;
5303;SDS011;2674;49.722;10.892;2023-05-15T06:39:39;8.87;;;6.70;;
5303;SDS011;2674;49.722;10.892;2023-05-15T06:42:05;10.37;;;5.50;;
5303;SDS011;2674;49.722;10.892;2023-05-15T06:44:31;6.87;;;5.60;;
5303;SDS011;2674;49.722;10.892;2023-05-15T06:46:58;7.73;;;7.00;;
5303;SDS011;2674;49.722;10.892;2023-05-15T06:49:24;6.70;;;6.10;;
5303;SDS011;2674;49.722;10.892;2023-05-15T06:51:50;10.30;;;6.20;;
5303;SDS011;2674;49.722;10.892;2023-05-15T06:54:16;9.63;;;7.10;;
5303;SDS011;2674;49.722;10.892;2023-05-15T06:56:43;7.67;;;5.90;;
5303;SDS011;2674;49.722;10.892;2023-05-15T06:59:09;6.93;;;5.97;;
5303;SDS011;2674;49.722;10.892;2023-05-15T07:01:35;8.03;;;6.10;;
5303;SDS011;2674;49.722;10.892;2023-05-15T07:04:02;8.60;;;6.80;;
5303;SDS011;2674;49.722;10.892;2023-05-15T07:06:29;6.77;;;5.93;;
5303;SDS011;2674;49.722;10.892;2023-05-15T07:08:58;6.67;;;5.90;;
5303;SDS011;2674;49.722;10.892;2023-05-15T07:11:24;8.00;;;5.10;;
5303;SDS011;2674;49.722;10.892;2023-05-15T07:13:51;7.23;;;6.53;;
5303;SDS011;2674;49.722;10.892;2023-05-15T07:16:17;7.80;;;6.23;;
5303;SDS011;2674;49.722;10.892;2023-05-15T07:18:43;7.07;;;5.93;;
5303;SDS011;2674;49.722;10.892;2023-05-15T07:21:09;6.97;;;5.13;;
5303;SDS011;2674;49.722;10.892;2023-05-15T07:23:36;6.63;;;4.90;;
5303;SDS011;2674;49.722;10.892;2023-05-15T07:26:02;6.93;;;5.47;;
5303;SDS011;2674;49.722;10.892;2023-05-15T07:28:28;6.27;;;5.30;;
5303;SDS011;2674;49.722;10.892;2023-05-15T07:30:54;6.53;;;5.80;;
5303;SDS011;2674;49.722;10.892;2023-05-15T07:33:20;4.87;;;4.40;;
5303;SDS011;2674;49.722;10.892;2023-05-15T07:35:46;4.47;;;4.07;;
5303;SDS011;2674;49.722;10.892;2023-05-15T07:38:11;4.73;;;4.33;;
5303;SDS011;2674;49.722;10.892;2023-05-15T07:40:37;5.20;;;4.77;;
5303;SDS011;2674;49.722;10.892;2023-05-15T07:43:03;5.57;;;4.93;;
5303;SDS011;2674;49.722;10.892;2023-05-15T07:45:29;4.73;;;4.33;;
5303;SDS011;2674;49.722;10.892;2023-05-15T07:47:55;4.37;;;3.97;;
5303;SDS011;2674;49.722;10.892;2023-05-15T07:50:22;5.27;;;4.77;;
5303;SDS011;2674;49.722;10.892;2023-05-15T07:52:48;4.43;;;3.80;;
5303;SDS011;2674;49.722;10.892;2023-05-15T07:55:14;4.80;;;4.40;;
5303;SDS011;2674;49.722;10.892;2023-05-15T07:57:40;6.43;;;4.77;;
5303;SDS011;2674;49.722;10.892;2023-05-15T08:00:06;5.10;;;4.60;;
5303;SDS011;2674;49.722;10.892;2023-05-15T08:02:35;9.20;;;4.20;;
5303;SDS011;2674;49.722;10.892;2023-05-15T08:05:01;5.77;;;5.10;;
5303;SDS011;2674;49.722;10.892;2023-05-15T08:07:27;5.97;;;4.67;;
5303;SDS011;2674;49.722;10.892;2023-05-15T08:09:55;5.57;;;5.07;;
5303;SDS011;2674;49.722;10.892;2023-05-15T08:12:21;5.17;;;4.67;;
5303;SDS011;2674;49.722;10.892;2023-05-15T08:14:47;11.13;;;4.40;;
5303;SDS011;2674;49.722;10.892;2023-05-15T08:17:14;5.50;;;3.73;;
5303;SDS011;2674;49.722;10.892;2023-05-15T08:19:40;4.47;;;3.73;;
5303;SDS011;2674;49.722;10.892;2023-05-15T08:22:06;4.57;;;4.07;;
5303;SDS011;2674;49.722;10.892;2023-05-15T08:24:33;4.87;;;4.47;;
5303;SDS011;2674;49.722;10.892;2023-05-15T08:26:59;5.73;;;4.30;;
5303;SDS011;2674;49.722;10.892;2023-05-15T08:29:25;6.73;;;4.03;;
5303;SDS011;2674;49.722;10.892;2023-05-15T08:31:51;4.67;;;3.93;;
5303;SDS011;2674;49.722;10.892;2023-05-15T08:34:17;4.43;;;4.03;;
5303;SDS011;2674;49.722;10.892;2023-05-15T08:36:43;3.93;;;3.63;;
5303;SDS011;2674;49.722;10.892;2023-05-15T08:39:09;4.47;;;4.17;;
5303;SDS011;2674;49.722;10.892;2023-05-15T08:41:47;4.80;;;4.40;;
5303;SDS011;2674;49.722;10.892;2023-05-15T08:44:37;4.93;;;4.53;;
5303;SDS011;2674;49.722;10.892;2023-05-15T08:47:04;4.73;;;4.33;;
5303;SDS011;2674;49.722;10.892;2023-05-15T08:52:15;3.83;;;3.53;;
5303;SDS011;2674;49.722;10.892;2023-05-15T08:54:41;7.13;;;4.13;;
5303;SDS011;2674;49.722;10.892;2023-05-15T08:57:08;3.43;;;3.23;;
5303;SDS011;2674;49.722;10.892;2023-05-15T08:59:35;4.13;;;3.83;;
5303;SDS011;2674;49.722;10.892;2023-05-15T09:02:02;4.37;;;3.60;;
5303;SDS011;2674;49.722;10.892;2023-05-15T09:04:27;3.90;;;3.70;;
5303;SDS011;2674;49.722;10.892;2023-05-15T09:06:53;6.43;;;3.80;;
5303;SDS011;2674;49.722;10.892;2023-05-15T09:09:20;4.97;;;3.87;;
5303;SDS011;2674;49.722;10.892;2023-05-15T09:11:47;2.87;;;2.70;;
5303;SDS011;2674;49.722;10.892;2023-05-15T09:14:14;3.67;;;3.37;;
5303;SDS011;2674;49.722;10.892;2023-05-15T09:16:40;4.77;;;3.67;;
5303;SDS011;2674;49.722;10.892;2023-05-15T09:19:06;4.80;;;3.43;;
5303;SDS011;2674;49.722;10.892;2023-05-15T09:21:33;3.15;;;2.95;;
5303;SDS011;2674;49.722;10.892;2023-05-15T09:24:15;3.73;;;3.50;;
5303;SDS011;2674;49.722;10.892;2023-05-15T09:26:43;4.53;;;4.13;;
5303;SDS011;2674;49.722;10.892;2023-05-15T09:29:26;5.13;;;4.13;;
5303;SDS011;2674;49.722;10.892;2023-05-15T09:31:53;3.60;;;3.40;;
5303;SDS011;2674;49.722;10.892;2023-05-15T09:34:27;4.40;;;3.30;;
5303;SDS011;2674;49.722;10.892;2023-05-15T09:36:54;3.70;;;3.40;;
5303;SDS011;2674;49.722;10.892;2023-05-15T09:39:23;4.07;;;3.77;;
5303;SDS011;2674;49.722;10.892;2023-05-15T09:41:50;8.23;;;3.43;;
5303;SDS011;2674;49.722;10.892;2023-05-15T09:44:17;3.53;;;3.20;;
5303;SDS011;2674;49.722;10.892;2023-05-15T09:46:49;5.47;;;3.80;;
5303;SDS011;2674;49.722;10.892;2023-05-15T09:49:16;3.20;;;2.90;;
5303;SDS011;2674;49.722;10.892;2023-05-15T09:51:43;9.83;;;4.23;;
5303;SDS011;2674;49.722;10.892;2023-05-15T09:54:16;3.30;;;3.00;;
5303;SDS011;2674;49.722;10.892;2023-05-15T09:56:46;5.43;;;2.70;;
5303;SDS011;2674;49.722;10.892;2023-05-15T09:59:17;3.00;;;2.80;;
5303;SDS011;2674;49.722;10.892;2023-05-15T10:01:46;2.77;;;2.57;;
5303;SDS011;2674;49.722;10.892;2023-05-15T10:04:16;2.83;;;2.63;;
5303;SDS011;2674;49.722;10.892;2023-05-15T10:06:44;3.10;;;2.90;;
5303;SDS011;2674;49.722;10.892;2023-05-15T10:09:11;3.13;;;2.93;;
5303;SDS011;2674;49.722;10.892;2023-05-15T10:11:42;4.50;;;3.10;;
5303;SDS011;2674;49.722;10.892;2023-05-15T10:14:11;12.33;;;3.57;;
5303;SDS011;2674;49.722;10.892;2023-05-15T10:16:38;3.33;;;3.10;;
5303;SDS011;2674;49.722;10.892;2023-05-15T10:19:06;4.27;;;3.07;;
5303;SDS011;2674;49.722;10.892;2023-05-15T10:21:37;2.37;;;2.27;;
5303;SDS011;2674;49.722;10.892;2023-05-15T10:24:05;3.50;;;3.20;;
5303;SDS011;2674;49.722;10.892;2023-05-15T10:26:41;3.30;;;3.00;;
5303;SDS011;2674;49.722;10.892;2023-05-15T10:31:40;3.30;;;3.10;;
5303;SDS011;2674;49.722;10.892;2023-05-15T10:34:07;3.03;;;2.83;;
5303;SDS011;2674;49.722;10.892;2023-05-15T10:36:35;5.10;;;2.73;;
5303;SDS011;2674;49.722;10.892;2023-05-15T10:39:02;4.70;;;3.00;;
5303;SDS011;2674;49.722;10.892;2023-05-15T10:41:31;3.30;;;3.10;;
5303;SDS011;2674;49.722;10.892;2023-05-15T10:44:00;5.83;;;3.20;;
5303;SDS011;2674;49.722;10.892;2023-05-15T10:46:30;3.30;;;2.53;;
5303;SDS011;2674;49.722;10.892;2023-05-15T10:48:58;3.33;;;3.03;;
5303;SDS011;2674;49.722;10.892;2023-05-15T10:51:31;7.40;;;3.00;;
5303;SDS011;2674;49.722;10.892;2023-05-15T10:54:00;3.10;;;2.90;;
5303;SDS011;2674;49.722;10.892;2023-05-15T10:56:31;4.13;;;2.80;;
5303;SDS011;2674;49.722;10.892;2023-05-15T10:59:03;3.47;;;3.17;;
5303;SDS011;2674;49.722;10.892;2023-05-15T11:01:32;3.73;;;2.90;;
5303;SDS011;2674;49.722;10.892;2023-05-15T11:06:34;3.87;;;3.07;;
5303;SDS011;2674;49.722;10.892;2023-05-15T11:11:59;3.13;;;2.93;;
5303;SDS011;2674;49.722;10.892;2023-05-15T11:14:27;6.03;;;3.10;;
5303;SDS011;2674;49.722;10.892;2023-05-15T11:16:57;7.23;;;3.53;;
5303;SDS011;2674;49.722;10.892;2023-05-15T11:19:37;5.50;;;3.20;;
5303;SDS011;2674;49.722;10.892;2023-05-15T11:25:04;5.10;;;3.20;;
5303;SDS011;2674;49.722;10.892;2023-05-15T11:27:38;4.00;;;3.13;;
5303;SDS011;2674;49.722;10.892;2023-05-15T11:43:04;10.80;;;4.10;;
5303;SDS011;2674;49.722;10.892;2023-05-15T11:45:51;7.50;;;4.10;;
5303;SDS011;2674;49.722;10.892;2023-05-15T11:48:21;5.70;;;4.20;;
5303;SDS011;2674;49.722;10.892;2023-05-15T11:50:49;6.20;;;3.93;;
5303;SDS011;2674;49.722;10.892;2023-05-15T11:53:18;4.40;;;3.83;;
5303;SDS011;2674;49.722;10.892;2023-05-15T11:55:48;5.27;;;4.10;;
5303;SDS011;2674;49.722;10.892;2023-05-15T11:58:17;4.70;;;4.30;;
5303;SDS011;2674;49.722;10.892;2023-05-15T12:00:45;3.70;;;3.40;;
5303;SDS011;2674;49.722;10.892;2023-05-15T12:03:13;4.60;;;4.20;;
5303;SDS011;2674;49.722;10.892;2023-05-15T12:05:42;7.83;;;4.40;;
5303;SDS011;2674;49.722;10.892;2023-05-15T12:08:10;3.60;;;3.30;;
5303;SDS011;2674;49.722;10.892;2023-05-15T12:10:41;7.03;;;4.33;;
5303;SDS011;2674;49.722;10.892;2023-05-15T12:13:09;4.40;;;4.00;;
5303;SDS011;2674;49.722;10.892;2023-05-15T12:15:39;4.90;;;4.20;;
5303;SDS011;2674;49.722;10.892;2023-05-15T12:18:08;3.93;;;3.63;;
5303;SDS011;2674;49.722;10.892;2023-05-15T12:20:35;6.30;;;4.10;;
5303;SDS011;2674;49.722;10.892;2023-05-15T12:23:02;7.33;;;3.90;;
5303;SDS011;2674;49.722;10.892;2023-05-15T12:25:30;4.30;;;4.00;;
5303;SDS011;2674;49.722;10.892;2023-05-15T12:27:57;5.40;;;3.40;;
5303;SDS011;2674;49.722;10.892;2023-05-15T12:30:25;5.60;;;4.27;;
5303;SDS011;2674;49.722;10.892;2023-05-15T12:32:52;4.43;;;4.03;;
5303;SDS011;2674;49.722;10.892;2023-05-15T12:35:18;7.07;;;3.93;;
5303;SDS011;2674;49.722;10.892;2023-05-15T12:37:45;3.93;;;3.53;;
5303;SDS011;2674;49.722;10.892;2023-05-15T12:40:11;4.30;;;3.87;;
5303;SDS011;2674;49.722;10.892;2023-05-15T12:42:39;5.07;;;3.93;;
5303;SDS011;2674;49.722;10.892;2023-05-15T12:45:15;3.93;;;3.53;;
5303;SDS011;2674;49.722;10.892;2023-05-15T12:47:43;7.50;;;4.10;;
5303;SDS011;2674;49.722;10.892;2023-05-15T12:50:20;3.87;;;3.57;;
5303;SDS011;2674;49.722;10.892;2023-05-15T12:52:54;6.90;;;4.40;;
5303;SDS011;2674;49.722;10.892;2023-05-15T12:55:22;5.23;;;3.97;;
5303;SDS011;2674;49.722;10.892;2023-05-15T12:57:50;4.60;;;4.10;;
5303;SDS011;2674;49.722;10.892;2023-05-15T13:00:32;5.73;;;3.73;;
5303;SDS011;2674;49.722;10.892;2023-05-15T13:03:10;4.20;;;3.80;;
5303;SDS011;2674;49.722;10.892;2023-05-15T13:05:38;9.03;;;4.30;;
5303;SDS011;2674;49.722;10.892;2023-05-15T13:08:06;4.30;;;3.90;;
5303;SDS011;2674;49.722;10.892;2023-05-15T13:10:33;4.10;;;3.80;;
5303;SDS011;2674;49.722;10.892;2023-05-15T13:13:00;3.77;;;3.40;;
5303;SDS011;2674;49.722;10.892;2023-05-15T13:15:33;7.73;;;3.97;;
5303;SDS011;2674;49.722;10.892;2023-05-15T13:18:01;4.40;;;4.00;;
5303;SDS011;2674;49.722;10.892;2023-05-15T13:23:00;4.47;;;4.03;;
5303;SDS011;2674;49.722;10.892;2023-05-15T13:25:26;3.60;;;3.13;;
5303;SDS011;2674;49.722;10.892;2023-05-15T13:27:54;3.60;;;3.40;;
5303;SDS011;2674;49.722;10.892;2023-05-15T13:30:23;7.70;;;3.50;;
5303;SDS011;2674;49.722;10.892;2023-05-15T13:32:50;5.07;;;3.83;;
5303;SDS011;2674;49.722;10.892;2023-05-15T13:35:17;6.53;;;3.97;;
5303;SDS011;2674;49.722;10.892;2023-05-15T13:37:43;4.00;;;3.70;;
5303;SDS011;2674;49.722;10.892;2023-05-15T13:40:09;6.20;;;3.50;;
5303;SDS011;2674;49.722;10.892;2023-05-15T13:42:36;4.20;;;3.40;;
5303;SDS011;2674;49.722;10.892;2023-05-15T13:45:03;3.90;;;3.60;;
5303;SDS011;2674;49.722;10.892;2023-05-15T13:47:30;3.47;;;3.17;;
5303;SDS011;2674;49.722;10.892;2023-05-15T13:49:58;4.03;;;3.70;;
5303;SDS011;2674;49.722;10.892;2023-05-15T13:52:24;5.30;;;4.00;;
5303;SDS011;2674;49.722;10.892;2023-05-15T13:54:52;5.10;;;3.80;;
5303;SDS011;2674;49.722;10.892;2023-05-15T13:57:19;4.30;;;4.00;;
5303;SDS011;2674;49.722;10.892;2023-05-15T13:59:45;3.80;;;3.50;;
5303;SDS011;2674;49.722;10.892;2023-05-15T14:02:11;3.03;;;2.83;;
5303;SDS011;2674;49.722;10.892;2023-05-15T14:04:37;4.73;;;4.07;;
5303;SDS011;2674;49.722;10.892;2023-05-15T14:07:03;4.53;;;3.40;;
5303;SDS011;2674;49.722;10.892;2023-05-15T14:09:30;5.73;;;3.23;;
5303;SDS011;2674;49.722;10.892;2023-05-15T14:11:56;3.30;;;3.10;;
5303;SDS011;2674;49.722;10.892;2023-05-15T14:14:22;7.40;;;4.90;;
5303;SDS011;2674;49.722;10.892;2023-05-15T14:16:49;3.80;;;3.50;;
5303;SDS011;2674;49.722;10.892;2023-05-15T14:19:15;3.70;;;3.33;;
5303;SDS011;2674;49.722;10.892;2023-05-15T14:21:42;3.57;;;3.27;;
5303;SDS011;2674;49.722;10.892;2023-05-15T14:24:08;8.43;;;4.17;;
5303;SDS011;2674;49.722;10.892;2023-05-15T14:26:34;4.23;;;3.83;;
5303;SDS011;2674;49.722;10.892;2023-05-15T14:29:01;9.27;;;3.37;;
5303;SDS011;2674;49.722;10.892;2023-05-15T14:31:27;4.27;;;3.27;;
5303;SDS011;2674;49.722;10.892;2023-05-15T14:33:53;3.20;;;2.97;;
5303;SDS011;2674;49.722;10.892;2023-05-15T14:36:20;4.13;;;3.83;;
5303;SDS011;2674;49.722;10.892;2023-05-15T14:38:46;3.50;;;3.20;;
5303;SDS011;2674;49.722;10.892;2023-05-15T14:41:13;3.77;;;3.47;;
5303;SDS011;2674;49.722;10.892;2023-05-15T14:43:39;4.20;;;3.50;;
5303;SDS011;2674;49.722;10.892;2023-05-15T14:46:05;4.30;;;3.97;;
5303;SDS011;2674;49.722;10.892;2023-05-15T14:48:31;12.40;;;4.17;;
5303;SDS011;2674;49.722;10.892;2023-05-15T14:50:58;3.83;;;3.13;;
5303;SDS011;2674;49.722;10.892;2023-05-15T14:53:25;3.60;;;3.30;;
5303;SDS011;2674;49.722;10.892;2023-05-15T14:55:53;3.93;;;3.53;;
5303;SDS011;2674;49.722;10.892;2023-05-15T14:58:19;3.20;;;2.90;;
5303;SDS011;2674;49.722;10.892;2023-05-15T15:00:45;4.30;;;3.20;;
5303;SDS011;2674;49.722;10.892;2023-05-15T15:03:12;4.87;;;3.30;;
5303;SDS011;2674;49.722;10.892;2023-05-15T15:05:38;2.97;;;2.77;;
5303;SDS011;2674;49.722;10.892;2023-05-15T15:08:06;3.63;;;3.33;;
5303;SDS011;2674;49.722;10.892;2023-05-15T15:10:34;6.20;;;2.67;;
5303;SDS011;2674;49.722;10.892;2023-05-15T15:13:02;4.43;;;2.73;;
5303;SDS011;2674;49.722;10.892;2023-05-15T15:15:29;2.67;;;2.47;;
5303;SDS011;2674;49.722;10.892;2023-05-15T15:17:57;3.07;;;2.87;;
5303;SDS011;2674;49.722;10.892;2023-05-15T15:20:23;2.70;;;2.50;;
5303;SDS011;2674;49.722;10.892;2023-05-15T15:22:50;5.90;;;2.70;;
5303;SDS011;2674;49.722;10.892;2023-05-15T15:25:16;2.90;;;2.70;;
5303;SDS011;2674;49.722;10.892;2023-05-15T15:27:43;2.80;;;2.60;;
5303;SDS011;2674;49.722;10.892;2023-05-15T15:30:09;2.73;;;2.53;;
5303;SDS011;2674;49.722;10.892;2023-05-15T15:32:36;5.00;;;3.47;;
5303;SDS011;2674;49.722;10.892;2023-05-15T15:35:02;2.90;;;2.70;;
5303;SDS011;2674;49.722;10.892;2023-05-15T15:37:29;2.60;;;2.40;;
5303;SDS011;2674;49.722;10.892;2023-05-15T15:39:57;3.30;;;3.00;;
5303;SDS011;2674;49.722;10.892;2023-05-15T15:42:23;5.03;;;2.43;;
5303;SDS011;2674;49.722;10.892;2023-05-15T15:44:52;5.80;;;3.50;;